Time;durP1;ratioP1;P1;durP2;ratioP2;P2;SDS_P1;SDS_P2;PMS_P1;PMS_P2;Temp;Humidity;BMP_temperature;BMP_pressure;BME280_temperature;BME280_humidity;BME280_pressure;Samples;Min_cycle;Max_cycle;Signal;HPM_P1;HPM_P2
2022/03/31 00:06:34;;;;;;;7.10;2.53;;;;;;;;;;5133638;23;20084;-74
2022/03/31 00:09:00;;;;;;;7.47;2.63;;;;;;;;;;5088609;28;20476;-74
2022/03/31 00:11:26;;;;;;;7.28;2.58;;;;;;;;;;5099069;28;20047;-74
2022/03/31 00:13:53;;;;;;;7.85;2.60;;;;;;;;;;5105595;28;20060;-75
2022/03/31 00:16:19;;;;;;;7.97;2.83;;;;;;;;;;5104551;28;20116;-75
2022/03/31 00:18:45;;;;;;;7.75;2.80;;;;;;;;;;5106260;28;20051;-74
2022/03/31 00:21:11;;;;;;;7.75;2.90;;;;;;;;;;5105512;28;20490;-75
2022/03/31 00:23:39;;;;;;;8.02;2.85;;;;;;;;;;5105438;28;20469;-73
2022/03/31 00:26:05;;;;;;;8.40;3.40;;;;;;;;;;5105836;28;20055;-74
2022/03/31 00:28:33;;;;;;;8.70;3.28;;;;;;;;;;5105347;28;20146;-75
2022/03/31 00:31:00;;;;;;;9.02;3.20;;;;;;;;;;5105466;28;20056;-75
2022/03/31 00:33:26;;;;;;;10.30;3.38;;;;;;;;;;5105928;28;20085;-75
2022/03/31 00:35:52;;;;;;;8.25;3.20;;;;;;;;;;5105415;28;20394;-75
2022/03/31 00:38:18;;;;;;;11.68;3.55;;;;;;;;;;5106092;28;20069;-74
2022/03/31 00:40:46;;;;;;;8.18;3.33;;;;;;;;;;5105743;28;20047;-75
2022/03/31 00:43:12;;;;;;;12.02;3.92;;;;;;;;;;5097199;28;20054;-75
2022/03/31 00:45:47;;;;;;;10.82;3.95;;;;;;;;;;5105049;28;20055;-74
2022/03/31 00:48:14;;;;;;;11.18;3.85;;;;;;;;;;5105505;28;20080;-75
2022/03/31 00:50:40;;;;;;;9.95;3.63;;;;;;;;;;5104963;28;20059;-74
2022/03/31 00:53:06;;;;;;;10.70;4.10;;;;;;;;;;5098765;28;20464;-74
2022/03/31 00:55:33;;;;;;;10.90;4.13;;;;;;;;;;5104681;28;20137;-73
2022/03/31 00:58:00;;;;;;;10.32;3.55;;;;;;;;;;5104889;28;20043;-74
2022/03/31 01:00:27;;;;;;;9.57;4.18;;;;;;;;;;5105003;28;20400;-75
2022/03/31 01:02:53;;;;;;;10.95;4.20;;;;;;;;;;5104269;28;20415;-75
2022/03/31 01:05:19;;;;;;;11.18;4.07;;;;;;;;;;5096788;28;20131;-74
2022/03/31 01:07:46;;;;;;;12.18;4.50;;;;;;;;;;5105000;28;20047;-75
2022/03/31 01:10:13;;;;;;;9.57;3.85;;;;;;;;;;5080922;28;20048;-74
2022/03/31 01:12:39;;;;;;;13.07;4.40;;;;;;;;;;5083744;28;20044;-74
2022/03/31 01:15:08;;;;;;;12.00;4.38;;;;;;;;;;5083875;28;20056;-74
2022/03/31 01:17:34;;;;;;;;;;;;;;;;;;5076635;28;20044;-75
2022/03/31 01:20:01;;;;;;;11.93;4.72;;;;;;;;;;5084078;28;19920;-74
2022/03/31 01:22:29;;;;;;;11.20;4.38;;;;;;;;;;5083631;28;20055;-74
2022/03/31 01:24:57;;;;;;;11.82;4.60;;;;;;;;;;5084373;28;20048;-75
2022/03/31 01:27:25;;;;;;;11.43;4.32;;;;;;;;;;5077588;28;20109;-74
2022/03/31 01:29:51;;;;;;;13.50;5.38;;;;;;;;;;5084047;28;20048;-74
2022/03/31 01:32:17;;;;;;;11.55;4.43;;;;;;;;;;5084390;28;20044;-73
2022/03/31 01:34:44;;;;;;;12.57;5.03;;;;;;;;;;5083488;28;20501;-74
2022/03/31 01:37:10;;;;;;;13.05;4.97;;;;;;;;;;5083973;28;20049;-74
2022/03/31 01:39:36;;;;;;;11.02;4.57;;;;;;;;;;5083972;28;20052;-74
2022/03/31 01:42:04;;;;;;;14.05;5.32;;;;;;;;;;5084102;28;20044;-74
2022/03/31 01:44:31;;;;;;;12.80;4.72;;;;;;;;;;5080627;28;20519;-74
2022/03/31 01:46:57;;;;;;;12.98;5.05;;;;;;;;;;5084395;28;20073;-75
2022/03/31 01:49:24;;;;;;;12.32;4.68;;;;;;;;;;5083534;28;20086;-74
2022/03/31 01:51:50;;;;;;;12.05;4.85;;;;;;;;;;5083701;28;20063;-74
2022/03/31 01:54:16;;;;;;;11.52;4.85;;;;;;;;;;5075817;28;20055;-74
2022/03/31 01:56:43;;;;;;;11.75;4.63;;;;;;;;;;5083855;28;20067;-75
2022/03/31 01:59:10;;;;;;;11.98;5.28;;;;;;;;;;5083717;28;20075;-75
2022/03/31 02:01:36;;;;;;;14.70;4.90;;;;;;;;;;5075652;28;20059;-74
2022/03/31 02:04:03;;;;;;;13.48;5.43;;;;;;;;;;5076082;28;20051;-75
2022/03/31 02:06:29;;;;;;;13.93;4.57;;;;;;;;;;5082924;28;20400;-75
2022/03/31 02:08:56;;;;;;;13.40;5.07;;;;;;;;;;5075509;28;20083;-75
2022/03/31 02:11:23;;;;;;;12.23;4.13;;;;;;;;;;5083119;28;20048;-74
2022/03/31 02:13:49;;;;;;;14.85;4.82;;;;;;;;;;5083541;28;20056;-74
2022/03/31 02:16:17;;;;;;;11.73;4.82;;;;;;;;;;5083752;28;20430;-74
2022/03/31 02:18:43;;;;;;;15.57;5.43;;;;;;;;;;5083389;28;20060;-75
2022/03/31 02:21:09;;;;;;;13.10;5.60;;;;;;;;;;5075426;28;20052;-74
2022/03/31 02:23:36;;;;;;;12.80;5.32;;;;;;;;;;5083391;28;20040;-75
2022/03/31 02:26:02;;;;;;;11.98;4.72;;;;;;;;;;5083107;28;20412;-74
2022/03/31 02:28:28;;;;;;;13.15;5.00;;;;;;;;;;5083528;28;20112;-75
2022/03/31 02:30:55;;;;;;;12.27;5.10;;;;;;;;;;5082902;28;20056;-74
2022/03/31 02:33:23;;;;;;;13.35;5.25;;;;;;;;;;5075238;28;20048;-74
2022/03/31 02:35:49;;;;;;;13.48;4.97;;;;;;;;;;5083307;28;20083;-74
2022/03/31 02:38:15;;;;;;;13.50;5.50;;;;;;;;;;5084774;28;20040;-75
2022/03/31 02:40:42;;;;;;;12.95;5.60;;;;;;;;;;5086915;28;20075;-75
2022/03/31 02:43:10;;;;;;;14.20;5.53;;;;;;;;;;5079283;28;20047;-74
2022/03/31 02:45:36;;;;;;;12.90;5.18;;;;;;;;;;5086868;28;20083;-74
2022/03/31 02:48:02;;;;;;;12.85;5.10;;;;;;;;;;5087620;28;20057;-74
2022/03/31 02:50:30;;;;;;;15.77;6.18;;;;;;;;;;5086515;28;20056;-75
2022/03/31 02:55:55;;;;;;;15.90;6.43;;;;;;;;;;5044662;28;20056;-75
2022/03/31 02:58:21;;;;;;;13.98;5.70;;;;;;;;;;5045005;28;20055;-75
2022/03/31 03:00:48;;;;;;;13.77;5.80;;;;;;;;;;5062618;28;20052;-75
2022/03/31 03:03:14;;;;;;;14.68;6.15;;;;;;;;;;5087652;28;20044;-74
2022/03/31 03:05:42;;;;;;;15.02;6.22;;;;;;;;;;5087821;28;20052;-74
2022/03/31 03:08:09;;;;;;;15.52;6.75;;;;;;;;;;5088801;28;20075;-73
2022/03/31 03:10:35;;;;;;;18.48;7.47;;;;;;;;;;5069815;28;20045;-73
2022/03/31 03:13:01;;;;;;;15.93;7.63;;;;;;;;;;5069793;28;20102;-74
2022/03/31 03:15:27;;;;;;;17.55;6.82;;;;;;;;;;5068837;28;20052;-75
2022/03/31 03:17:54;;;;;;;18.27;6.97;;;;;;;;;;5069136;28;20056;-73
2022/03/31 03:20:24;;;;;;;16.60;7.13;;;;;;;;;;5068405;28;20060;-76
2022/03/31 03:22:52;;;;;;;19.95;7.50;;;;;;;;;;5067624;28;20133;-72
2022/03/31 03:25:19;;;;;;;18.25;7.43;;;;;;;;;;5070309;28;20109;-74
2022/03/31 03:27:46;;;;;;;18.52;7.60;;;;;;;;;;5070193;28;20078;-74
2022/03/31 03:30:13;;;;;;;19.83;8.00;;;;;;;;;;5072950;28;20056;-74
2022/03/31 03:32:40;;;;;;;20.42;7.97;;;;;;;;;;5070052;28;20052;-75
2022/03/31 03:35:07;;;;;;;21.17;8.75;;;;;;;;;;5068094;28;20048;-75
2022/03/31 03:37:33;;;;;;;20.48;8.43;;;;;;;;;;5068135;28;20052;-73
2022/03/31 03:40:02;;;;;;;21.27;8.95;;;;;;;;;;5069831;28;20850;-74
2022/03/31 03:42:28;;;;;;;;;;;;;;;;;;5066394;28;20049;-74
2022/03/31 03:44:55;;;;;;;20.65;8.48;;;;;;;;;;5065939;28;20057;-74
2022/03/31 03:47:22;;;;;;;21.35;8.93;;;;;;;;;;5065516;28;20045;-74
2022/03/31 03:49:48;;;;;;;20.85;8.20;;;;;;;;;;5062377;28;20449;-72
2022/03/31 03:52:15;;;;;;;19.10;8.70;;;;;;;;;;5066352;28;20057;-74
2022/03/31 03:54:41;;;;;;;22.23;9.18;;;;;;;;;;5066357;28;20057;-74
2022/03/31 03:57:09;;;;;;;19.08;8.00;;;;;;;;;;5065485;28;20427;-75
2022/03/31 03:59:35;;;;;;;23.77;9.77;;;;;;;;;;5063464;28;20122;-75
2022/03/31 04:02:02;;;;;;;22.92;9.60;;;;;;;;;;5059007;28;20103;-74
2022/03/31 04:04:29;;;;;;;25.48;9.98;;;;;;;;;;5068947;28;20045;-74
2022/03/31 04:06:55;;;;;;;22.77;8.80;;;;;;;;;;5063703;28;20053;-74
2022/03/31 04:09:22;;;;;;;23.65;9.57;;;;;;;;;;5066171;28;20048;-75
2022/03/31 04:11:48;;;;;;;25.27;10.18;;;;;;;;;;5065460;28;20053;-75
2022/03/31 04:14:16;;;;;;;22.63;8.93;;;;;;;;;;5065247;28;20131;-75
2022/03/31 04:16:42;;;;;;;26.60;9.70;;;;;;;;;;5058452;28;20465;-73
2022/03/31 04:19:09;;;;;;;22.25;8.60;;;;;;;;;;5065972;28;20048;-74
2022/03/31 04:21:35;;;;;;;25.63;10.15;;;;;;;;;;5066007;28;20111;-75
2022/03/31 04:24:01;;;;;;;20.67;8.90;;;;;;;;;;5064683;28;20049;-74
2022/03/31 04:26:28;;;;;;;22.63;9.40;;;;;;;;;;5065117;28;20049;-75
2022/03/31 04:28:54;;;;;;;26.48;10.30;;;;;;;;;;5056869;28;20146;-74
2022/03/31 04:31:21;;;;;;;22.00;9.45;;;;;;;;;;5065315;28;20057;-74
2022/03/31 04:33:48;;;;;;;20.63;8.75;;;;;;;;;;5057132;28;20060;-74
2022/03/31 04:36:14;;;;;;;22.80;9.35;;;;;;;;;;5064520;28;20110;-75
2022/03/31 04:38:41;;;;;;;22.80;9.68;;;;;;;;;;5064471;28;20052;-75
2022/03/31 04:41:07;;;;;;;23.38;9.82;;;;;;;;;;5064773;28;20094;-74
2022/03/31 04:43:33;;;;;;;26.60;10.23;;;;;;;;;;5063789;28;20057;-74
2022/03/31 04:46:00;;;;;;;22.75;9.02;;;;;;;;;;5064703;28;20091;-74
2022/03/31 04:48:29;;;;;;;24.95;9.90;;;;;;;;;;5063654;28;20110;-74
2022/03/31 04:50:55;;;;;;;;;;;;;;;;;;5057604;28;20052;-74
2022/03/31 04:53:21;;;;;;;23.10;9.25;;;;;;;;;;5056504;28;19978;-74
2022/03/31 04:55:47;;;;;;;28.05;10.15;;;;;;;;;;5056497;28;20114;-74
2022/03/31 04:58:14;;;;;;;23.60;9.52;;;;;;;;;;5056570;28;20439;-74
2022/03/31 05:00:40;;;;;;;27.02;10.45;;;;;;;;;;5056414;28;20428;-74
2022/03/31 05:03:06;;;;;;;24.33;9.82;;;;;;;;;;5064525;28;20053;-75
2022/03/31 05:05:34;;;;;;;25.48;9.52;;;;;;;;;;5056845;28;20450;-74
2022/03/31 05:08:00;;;;;;;27.17;10.23;;;;;;;;;;5064137;28;20052;-75
2022/03/31 05:10:27;;;;;;;23.17;9.23;;;;;;;;;;5058250;28;20110;-73
2022/03/31 05:12:53;;;;;;;22.35;8.73;;;;;;;;;;5064174;28;20068;-76
2022/03/31 05:15:20;;;;;;;23.63;9.93;;;;;;;;;;5064713;28;20110;-76
2022/03/31 05:17:46;;;;;;;25.10;9.90;;;;;;;;;;5056283;28;20154;-74
2022/03/31 05:20:13;;;;;;;26.70;10.70;;;;;;;;;;5064559;28;20056;-76
2022/03/31 05:22:41;;;;;;;30.77;10.75;;;;;;;;;;5064040;28;20048;-73
2022/03/31 05:25:08;;;;;;;24.33;10.02;;;;;;;;;;5063464;28;20464;-74
2022/03/31 05:27:35;;;;;;;25.13;10.02;;;;;;;;;;5057224;28;20049;-73
2022/03/31 05:30:01;;;;;;;25.73;10.25;;;;;;;;;;5064021;28;20111;-75
2022/03/31 05:32:27;;;;;;;25.30;10.40;;;;;;;;;;5064675;28;20064;-75
2022/03/31 05:34:54;;;;;;;28.00;10.77;;;;;;;;;;5056549;28;20048;-74
2022/03/31 05:37:21;;;;;;;27.55;11.05;;;;;;;;;;5062914;28;20052;-74
2022/03/31 05:39:48;;;;;;;26.23;10.70;;;;;;;;;;5055670;28;20048;-75
2022/03/31 05:42:14;;;;;;;27.92;10.57;;;;;;;;;;5063556;28;20465;-75
2022/03/31 05:44:41;;;;;;;24.83;10.05;;;;;;;;;;5062162;28;20358;-74
2022/03/31 05:47:07;;;;;;;25.58;10.13;;;;;;;;;;5056563;28;20063;-73
2022/03/31 05:49:33;;;;;;;29.08;11.38;;;;;;;;;;5064829;28;20056;-74
2022/03/31 05:52:00;;;;;;;26.98;10.98;;;;;;;;;;5058167;28;20060;-75
2022/03/31 05:54:26;;;;;;;29.05;10.82;;;;;;;;;;5064665;28;20520;-74
2022/03/31 05:56:54;;;;;;;25.23;9.82;;;;;;;;;;5064636;28;20526;-75
2022/03/31 05:59:20;;;;;;;26.25;10.32;;;;;;;;;;5058038;28;20531;-73
2022/03/31 06:01:46;;;;;;;27.92;10.07;;;;;;;;;;5064906;28;20122;-74
2022/03/31 06:04:16;;;;;;;27.77;9.90;;;;;;;;;;5060680;28;20056;-74
2022/03/31 06:06:42;;;;;;;25.70;10.13;;;;;;;;;;5063788;28;20442;-73
2022/03/31 06:09:09;;;;;;;25.73;9.70;;;;;;;;;;5064018;28;20064;-74
2022/03/31 06:11:35;;;;;;;24.05;9.25;;;;;;;;;;5063319;28;20052;-74
2022/03/31 06:14:02;;;;;;;25.23;9.15;;;;;;;;;;5066423;28;20109;-73
2022/03/31 06:16:29;;;;;;;27.30;10.60;;;;;;;;;;5066656;28;20366;-73
2022/03/31 06:18:55;;;;;;;21.80;8.35;;;;;;;;;;5068718;28;20114;-73
2022/03/31 06:21:22;;;;;;;30.77;9.68;;;;;;;;;;5068220;28;20056;-77
2022/03/31 06:23:49;;;;;;;23.63;9.07;;;;;;;;;;5067081;28;20050;-74
2022/03/31 06:26:15;;;;;;;47.78;10.38;;;;;;;;;;5067179;28;20059;-75
2022/03/31 06:28:41;;;;;;;25.60;9.23;;;;;;;;;;5068135;28;20045;-73
2022/03/31 06:31:09;;;;;;;27.85;9.32;;;;;;;;;;5067739;28;20059;-74
2022/03/31 06:33:37;;;;;;;21.75;7.65;;;;;;;;;;5059926;28;20416;-73
2022/03/31 06:36:03;;;;;;;42.65;10.75;;;;;;;;;;5066631;28;20048;-73
2022/03/31 06:38:30;;;;;;;10.45;4.32;;;;;;;;;;5069404;28;20429;-66
2022/03/31 06:41:10;;;;;;;11.00;4.97;;;;;;;;;;5068290;28;20482;-73
2022/03/31 06:43:37;;;;;;;9.75;4.30;;;;;;;;;;5069581;28;20318;-74
2022/03/31 06:46:04;;;;;;;11.43;3.90;;;;;;;;;;5071576;28;20044;-66
2022/03/31 06:49:14;;;;;;;10.45;3.38;;;;;;;;;;5131441;27;20390;-29
2022/03/31 06:51:43;;;;;;;11.60;2.85;;;;;;;;;;5130684;28;20051;-29
2022/03/31 06:54:09;;;;;;;9.65;2.90;;;;;;;;;;5131695;28;20048;-29
2022/03/31 06:56:36;;;;;;;7.68;2.67;;;;;;;;;;5131764;27;20134;-31
2022/03/31 06:59:02;;;;;;;8.77;2.95;;;;;;;;;;5131536;28;20047;-30
2022/03/31 07:01:29;;;;;;;7.93;2.67;;;;;;;;;;5131328;28;20055;-33
2022/03/31 07:03:56;;;;;;;8.10;2.50;;;;;;;;;;5131360;28;20055;-32
2022/03/31 07:06:23;;;;;;;10.15;2.45;;;;;;;;;;5131591;28;20051;-32
2022/03/31 07:08:50;;;;;;;7.47;2.30;;;;;;;;;;5131201;28;20051;-33
2022/03/31 07:11:16;;;;;;;8.75;2.40;;;;;;;;;;5131191;28;20988;-32
2022/03/31 07:13:43;;;;;;;6.75;2.25;;;;;;;;;;5131059;28;20047;-32
2022/03/31 07:16:09;;;;;;;6.63;2.50;;;;;;;;;;5131003;28;20448;-32
2022/03/31 07:18:36;;;;;;;10.20;2.78;;;;;;;;;;5131366;28;20051;-31
2022/03/31 07:21:02;;;;;;;8.40;2.50;;;;;;;;;;5131528;28;20109;-31
2022/03/31 07:23:30;;;;;;;7.03;2.20;;;;;;;;;;5131136;27;20052;-32
2022/03/31 07:25:57;;;;;;;6.85;2.15;;;;;;;;;;5130882;28;20059;-32
2022/03/31 07:28:24;;;;;;;9.95;2.30;;;;;;;;;;5131255;27;20073;-32
2022/03/31 07:30:50;;;;;;;10.77;2.13;;;;;;;;;;5130796;28;20055;-33
2022/03/31 07:33:19;;;;;;;5.07;2.00;;;;;;;;;;5131025;28;20062;-32
2022/03/31 07:35:47;;;;;;;5.93;2.28;;;;;;;;;;5130787;28;20051;-32
2022/03/31 07:38:14;;;;;;;6.45;2.05;;;;;;;;;;5130552;28;20075;-32
2022/03/31 07:40:42;;;;;;;8.55;2.40;;;;;;;;;;5130621;28;20472;-32
2022/03/31 07:43:08;;;;;;;11.77;2.60;;;;;;;;;;5130431;28;20134;-33
2022/03/31 07:45:35;;;;;;;7.03;2.10;;;;;;;;;;5130682;27;20459;-32
2022/03/31 07:48:02;;;;;;;6.18;1.92;;;;;;;;;;5130662;28;20043;-33
2022/03/31 07:50:29;;;;;;;6.95;2.20;;;;;;;;;;5130901;28;20429;-32
2022/03/31 07:52:55;;;;;;;6.18;2.05;;;;;;;;;;5130931;28;20051;-32
2022/03/31 07:55:22;;;;;;;6.78;2.10;;;;;;;;;;5130542;28;20055;-32
2022/03/31 07:57:50;;;;;;;4.82;1.90;;;;;;;;;;5130437;28;20104;-33
2022/03/31 08:00:16;;;;;;;;;;;;;;;;;;5118740;28;20472;-32
2022/03/31 08:02:43;;;;;;;6.70;2.20;;;;;;;;;;5116316;28;20317;-32
2022/03/31 08:05:10;;;;;;;6.35;1.90;;;;;;;;;;5116895;28;20051;-32
2022/03/31 08:07:36;;;;;;;5.45;1.90;;;;;;;;;;5116176;28;20546;-32
2022/03/31 08:10:03;;;;;;;5.30;2.00;;;;;;;;;;5116802;28;20051;-32
2022/03/31 08:12:29;;;;;;;6.40;2.13;;;;;;;;;;5116099;28;20051;-32
2022/03/31 08:14:57;;;;;;;6.50;2.22;;;;;;;;;;5116014;28;20388;-32
2022/03/31 08:17:24;;;;;;;5.47;2.05;;;;;;;;;;5116737;28;20384;-33
2022/03/31 08:19:50;;;;;;;7.35;2.10;;;;;;;;;;5116208;28;20105;-32
2022/03/31 08:22:17;;;;;;;3.88;1.90;;;;;;;;;;5116246;28;20055;-32
2022/03/31 08:24:43;;;;;;;7.70;2.20;;;;;;;;;;5116179;28;20086;-31
2022/03/31 08:27:10;;;;;;;5.00;1.95;;;;;;;;;;5116380;28;20051;-32
2022/03/31 08:29:37;;;;;;;5.13;1.95;;;;;;;;;;5116035;28;20047;-32
2022/03/31 08:32:05;;;;;;;4.63;1.88;;;;;;;;;;5116125;28;20047;-32
2022/03/31 08:34:32;;;;;;;5.85;2.00;;;;;;;;;;5115789;28;20464;-32
2022/03/31 08:36:58;;;;;;;6.10;1.90;;;;;;;;;;5115907;28;20066;-32
2022/03/31 08:39:24;;;;;;;6.20;1.90;;;;;;;;;;5116258;28;20039;-32
2022/03/31 08:41:51;;;;;;;4.72;2.08;;;;;;;;;;5115806;28;20055;-32
2022/03/31 08:44:19;;;;;;;4.55;1.75;;;;;;;;;;5115700;28;20251;-32
2022/03/31 08:46:45;;;;;;;5.53;2.00;;;;;;;;;;5115623;28;20108;-32
2022/03/31 08:49:13;;;;;;;5.25;1.90;;;;;;;;;;5115666;28;20047;-32
2022/03/31 08:51:40;;;;;;;4.57;2.15;;;;;;;;;;5115450;28;20073;-33
2022/03/31 08:54:08;;;;;;;5.72;2.00;;;;;;;;;;5116147;28;20062;-32
2022/03/31 08:56:34;;;;;;;5.25;2.08;;;;;;;;;;5115744;28;20058;-32
2022/03/31 08:59:00;;;;;;;5.05;1.90;;;;;;;;;;5115591;28;20051;-32
2022/03/31 09:01:30;;;;;;;5.57;2.03;;;;;;;;;;5116065;28;20043;-32
2022/03/31 09:03:56;;;;;;;3.13;1.80;;;;;;;;;;5115728;28;20146;-33
2022/03/31 09:06:25;;;;;;;4.53;2.03;;;;;;;;;;5115543;28;20423;-32
2022/03/31 09:08:54;;;;;;;6.15;2.20;;;;;;;;;;5115505;28;20142;-33
2022/03/31 09:11:25;;;;;;;4.35;2.08;;;;;;;;;;5114831;28;20059;-33
2022/03/31 09:13:54;;;;;;;6.45;2.05;;;;;;;;;;5115435;28;20067;-32
2022/03/31 09:16:29;;;;;;;4.78;2.17;;;;;;;;;;5115407;28;20047;-33
2022/03/31 09:19:00;;;;;;;4.95;2.00;;;;;;;;;;5115361;28;20184;-33
2022/03/31 09:21:27;;;;;;;4.90;1.85;;;;;;;;;;5115078;28;20051;-32
2022/03/31 09:23:54;;;;;;;6.15;1.90;;;;;;;;;;5115232;28;20051;-32
2022/03/31 09:26:20;;;;;;;5.35;2.20;;;;;;;;;;5114934;28;20051;-33
2022/03/31 09:28:46;;;;;;;5.15;2.00;;;;;;;;;;5115100;28;20070;-32
2022/03/31 09:31:13;;;;;;;5.03;2.00;;;;;;;;;;5114455;28;20055;-34
2022/03/31 09:33:40;;;;;;;6.18;2.25;;;;;;;;;;5115047;28;20054;-32
2022/03/31 09:36:07;;;;;;;6.10;2.10;;;;;;;;;;5115044;28;20052;-32
2022/03/31 09:38:37;;;;;;;4.70;1.92;;;;;;;;;;5115068;28;20052;-32
2022/03/31 09:41:05;;;;;;;4.47;2.03;;;;;;;;;;5114536;28;20051;-35
2022/03/31 09:43:41;;;;;;;5.00;2.08;;;;;;;;;;5114907;28;20051;-32
2022/03/31 09:46:17;;;;;;;4.57;2.00;;;;;;;;;;5115025;28;20146;-32
2022/03/31 09:48:43;;;;;;;4.60;2.00;;;;;;;;;;5114231;28;20074;-32
2022/03/31 09:51:10;;;;;;;5.30;1.80;;;;;;;;;;5114470;28;20387;-32
2022/03/31 09:53:39;;;;;;;6.18;2.10;;;;;;;;;;5114296;28;20051;-33
2022/03/31 09:56:06;;;;;;;4.70;2.10;;;;;;;;;;5114238;28;20055;-32
2022/03/31 09:58:36;;;;;;;4.35;1.90;;;;;;;;;;5114530;28;20104;-32
2022/03/31 10:01:03;;;;;;;5.43;1.98;;;;;;;;;;5114487;28;20060;-32
2022/03/31 10:03:30;;;;;;;6.20;2.20;;;;;;;;;;5114534;28;20059;-32
2022/03/31 10:05:57;;;;;;;5.05;1.98;;;;;;;;;;5114305;28;20048;-32
2022/03/31 10:08:24;;;;;;;5.28;1.98;;;;;;;;;;5113786;28;20047;-34
2022/03/31 10:10:52;;;;;;;5.60;2.08;;;;;;;;;;5114097;28;20048;-32
2022/03/31 10:13:19;;;;;;;4.28;1.98;;;;;;;;;;5113880;28;20051;-33
2022/03/31 10:15:46;;;;;;;3.75;1.80;;;;;;;;;;5114079;28;20060;-32
2022/03/31 10:18:13;;;;;;;4.90;2.15;;;;;;;;;;5113919;28;20399;-32
2022/03/31 10:20:40;;;;;;;4.93;1.80;;;;;;;;;;5114284;28;20164;-33
2022/03/31 10:25:51;;;;;;;5.90;2.22;;;;;;;;;;5113974;28;20316;-32
2022/03/31 10:28:20;;;;;;;5.13;2.03;;;;;;;;;;5113497;28;20043;-35
2022/03/31 10:30:54;;;;;;;3.95;1.90;;;;;;;;;;5113929;28;20055;-32
2022/03/31 10:33:28;;;;;;;6.07;2.20;;;;;;;;;;5113668;28;20463;-32
2022/03/31 10:36:01;;;;;;;3.78;1.88;;;;;;;;;;5113780;28;20120;-33
2022/03/31 10:38:28;;;;;;;3.72;2.00;;;;;;;;;;5113737;28;20051;-32
2022/03/31 10:41:03;;;;;;;5.90;2.22;;;;;;;;;;5113792;28;20066;-33
2022/03/31 10:43:30;;;;;;;4.18;1.92;;;;;;;;;;5113767;28;20055;-33
2022/03/31 10:45:58;;;;;;;5.47;2.00;;;;;;;;;;5113720;28;20361;-32
2022/03/31 10:48:25;;;;;;;3.58;1.80;;;;;;;;;;5113145;28;20479;-33
2022/03/31 10:51:01;;;;;;;4.22;1.85;;;;;;;;;;5113668;28;20055;-32
2022/03/31 10:53:27;;;;;;;3.63;1.77;;;;;;;;;;5113225;28;20047;-32
2022/03/31 10:55:55;;;;;;;5.35;2.00;;;;;;;;;;5113884;28;20058;-32
2022/03/31 10:58:26;;;;;;;5.25;2.13;;;;;;;;;;5113462;28;20058;-33
2022/03/31 11:00:52;;;;;;;4.47;2.00;;;;;;;;;;5113399;28;20507;-32
2022/03/31 11:03:19;;;;;;;4.68;1.88;;;;;;;;;;5113149;28;20503;-32
2022/03/31 11:05:46;;;;;;;5.00;2.10;;;;;;;;;;5113770;28;20071;-33
2022/03/31 11:08:17;;;;;;;5.18;2.03;;;;;;;;;;5113207;28;20146;-33
2022/03/31 11:10:44;;;;;;;3.97;1.98;;;;;;;;;;5113366;28;20055;-32
2022/03/31 11:13:11;;;;;;;5.55;1.90;;;;;;;;;;5113737;28;20143;-32
2022/03/31 11:15:38;;;;;;;4.55;1.95;;;;;;;;;;5113417;28;20044;-32
2022/03/31 11:18:05;;;;;;;4.47;2.00;;;;;;;;;;5113684;28;20051;-33
2022/03/31 11:20:31;;;;;;;5.97;2.00;;;;;;;;;;5113471;28;20056;-33
2022/03/31 11:22:59;;;;;;;5.00;2.03;;;;;;;;;;5113324;28;20052;-32
2022/03/31 11:25:25;;;;;;;;;;;;;;;;;;5113696;28;20134;-33
2022/03/31 11:27:52;;;;;;;4.28;1.95;;;;;;;;;;5113323;28;20401;-33
2022/03/31 11:30:23;;;;;;;4.05;1.77;;;;;;;;;;5113078;28;20471;-33
2022/03/31 11:32:54;;;;;;;5.43;2.00;;;;;;;;;;5113222;28;20094;-33
2022/03/31 11:35:22;;;;;;;5.05;2.10;;;;;;;;;;5116051;28;20051;-33
2022/03/31 11:37:49;;;;;;;4.32;1.90;;;;;;;;;;5117215;28;20052;-32
2022/03/31 11:40:19;;;;;;;5.32;1.98;;;;;;;;;;5116682;28;20067;-32
2022/03/31 11:42:46;;;;;;;5.72;2.10;;;;;;;;;;5116894;28;20138;-32
2022/03/31 11:45:22;;;;;;;3.65;1.90;;;;;;;;;;5117037;28;20177;-33
2022/03/31 11:47:56;;;;;;;3.90;1.90;;;;;;;;;;5116688;28;20062;-32
2022/03/31 11:50:23;;;;;;;5.65;2.00;;;;;;;;;;5116770;28;20113;-33
2022/03/31 11:52:50;;;;;;;3.88;1.92;;;;;;;;;;5116514;28;20055;-32
2022/03/31 11:55:16;;;;;;;5.32;2.00;;;;;;;;;;5116291;28;20349;-32
2022/03/31 11:57:50;;;;;;;5.45;2.15;;;;;;;;;;5116792;28;20487;-33
2022/03/31 12:00:17;;;;;;;3.67;1.85;;;;;;;;;;5116751;28;20044;-33
2022/03/31 12:02:54;;;;;;;4.63;1.90;;;;;;;;;;5116977;28;20055;-32
2022/03/31 12:05:21;;;;;;;3.95;1.90;;;;;;;;;;5116139;28;20051;-33
2022/03/31 12:07:48;;;;;;;4.50;2.00;;;;;;;;;;5116481;28;20208;-32
2022/03/31 12:10:14;;;;;;;4.60;2.13;;;;;;;;;;5116237;28;20062;-33
2022/03/31 12:12:45;;;;;;;4.82;2.00;;;;;;;;;;5116296;28;20388;-33
2022/03/31 12:15:19;;;;;;;5.32;2.10;;;;;;;;;;5116504;28;20047;-32
2022/03/31 12:17:55;;;;;;;4.53;2.10;;;;;;;;;;5116136;28;20059;-33
2022/03/31 12:20:22;;;;;;;5.63;1.95;;;;;;;;;;5116167;28;20043;-32
2022/03/31 12:22:49;;;;;;;4.30;2.08;;;;;;;;;;5116225;28;20055;-33
2022/03/31 12:25:25;;;;;;;4.15;1.98;;;;;;;;;;5116063;28;20051;-33
2022/03/31 12:27:52;;;;;;;5.68;2.10;;;;;;;;;;5116095;28;20052;-33
2022/03/31 12:30:18;;;;;;;3.15;1.80;;;;;;;;;;5115889;28;20054;-35
2022/03/31 12:32:47;;;;;;;4.43;2.20;;;;;;;;;;5115925;28;20052;-32
2022/03/31 12:35:14;;;;;;;4.50;2.10;;;;;;;;;;5115693;28;20116;-32
2022/03/31 12:37:45;;;;;;;4.03;1.80;;;;;;;;;;5116007;28;20055;-37
2022/03/31 12:40:12;;;;;;;3.22;1.80;;;;;;;;;;5115748;28;20146;-32
2022/03/31 12:42:41;;;;;;;3.97;1.80;;;;;;;;;;5115690;28;20052;-33
2022/03/31 12:45:14;;;;;;;4.07;1.80;;;;;;;;;;5115631;28;20055;-32
2022/03/31 12:47:41;;;;;;;4.53;1.75;;;;;;;;;;5115446;28;20051;-32
2022/03/31 12:50:14;;;;;;;3.83;1.95;;;;;;;;;;5115685;28;20044;-33
2022/03/31 12:52:51;;;;;;;4.15;1.90;;;;;;;;;;5115849;28;20066;-33
2022/03/31 12:55:18;;;;;;;4.18;2.00;;;;;;;;;;5115562;28;20491;-33
2022/03/31 12:57:54;;;;;;;5.03;2.10;;;;;;;;;;5115539;28;20047;-32
2022/03/31 13:00:21;;;;;;;5.75;2.10;;;;;;;;;;5115311;28;20097;-32
2022/03/31 13:02:48;;;;;;;4.57;1.90;;;;;;;;;;5115727;28;20055;-32
2022/03/31 13:05:18;;;;;;;4.45;1.90;;;;;;;;;;5115307;28;20052;-32
2022/03/31 13:07:46;;;;;;;4.38;1.88;;;;;;;;;;5115378;28;20051;-32
2022/03/31 13:10:12;;;;;;;3.45;1.90;;;;;;;;;;5115141;28;20135;-32
2022/03/31 13:12:38;;;;;;;5.07;1.90;;;;;;;;;;5115204;28;20047;-34
2022/03/31 13:15:07;;;;;;;3.85;1.98;;;;;;;;;;5115186;28;20112;-31
2022/03/31 13:17:34;;;;;;;4.22;1.83;;;;;;;;;;5115104;28;20051;-32
2022/03/31 13:20:00;;;;;;;3.88;1.70;;;;;;;;;;5114821;28;20052;-32
2022/03/31 13:22:28;;;;;;;4.15;1.95;;;;;;;;;;5115340;28;20048;-33
2022/03/31 13:24:56;;;;;;;4.03;1.90;;;;;;;;;;5115051;28;20047;-32
2022/03/31 13:27:22;;;;;;;4.75;1.90;;;;;;;;;;5114963;28;20081;-32
2022/03/31 13:29:49;;;;;;;3.42;1.90;;;;;;;;;;5114903;28;20402;-33
2022/03/31 13:32:15;;;;;;;4.50;2.00;;;;;;;;;;5115405;28;20108;-33
2022/03/31 13:34:46;;;;;;;3.92;2.00;;;;;;;;;;5115565;28;20063;-32
2022/03/31 13:37:13;;;;;;;4.50;1.88;;;;;;;;;;5115233;28;20142;-34
2022/03/31 13:39:39;;;;;;;3.85;2.00;;;;;;;;;;5114890;28;20044;-34
2022/03/31 13:42:07;;;;;;;4.43;2.00;;;;;;;;;;5114543;28;20398;-32
2022/03/31 13:44:34;;;;;;;4.60;1.90;;;;;;;;;;5114528;28;20140;-31
2022/03/31 13:47:01;;;;;;;4.75;2.03;;;;;;;;;;5114505;28;20066;-32
2022/03/31 13:49:27;;;;;;;4.47;1.90;;;;;;;;;;5114680;28;20048;-32
2022/03/31 13:51:54;;;;;;;3.47;1.80;;;;;;;;;;5114326;28;20047;-32
2022/03/31 13:54:21;;;;;;;4.97;2.17;;;;;;;;;;5114527;28;20047;-32
2022/03/31 13:56:48;;;;;;;4.55;2.10;;;;;;;;;;5114046;28;20051;-32
2022/03/31 14:02:01;;;;;;;4.75;1.90;;;;;;;;;;5114225;28;20061;-32
2022/03/31 14:04:28;;;;;;;3.95;1.88;;;;;;;;;;5114551;28;20044;-32
2022/03/31 14:06:54;;;;;;;3.60;1.90;;;;;;;;;;5114157;28;20055;-33
2022/03/31 14:09:23;;;;;;;4.43;1.80;;;;;;;;;;5114089;28;20059;-33
2022/03/31 14:11:49;;;;;;;;;;;;;;;;;;5114739;28;20079;-33
2022/03/31 14:14:18;;;;;;;5.20;2.08;;;;;;;;;;5113996;28;19920;-33
2022/03/31 14:16:48;;;;;;;4.10;2.03;;;;;;;;;;5113562;28;20533;-33
2022/03/31 14:19:14;;;;;;;3.83;2.00;;;;;;;;;;5114104;28;20051;-32
2022/03/31 14:21:41;;;;;;;4.43;2.10;;;;;;;;;;5114182;28;20062;-33
2022/03/31 14:24:08;;;;;;;5.15;2.00;;;;;;;;;;5114247;28;20059;-32
2022/03/31 14:26:35;;;;;;;3.28;1.85;;;;;;;;;;5114010;28;20047;-33
2022/03/31 14:29:01;;;;;;;3.85;2.00;;;;;;;;;;5114194;28;20048;-33
2022/03/31 14:31:29;;;;;;;3.90;1.80;;;;;;;;;;5113824;28;20048;-33
2022/03/31 14:33:56;;;;;;;2.78;1.70;;;;;;;;;;5114065;28;20146;-32
2022/03/31 14:36:23;;;;;;;4.40;2.00;;;;;;;;;;5113978;28;20134;-33
2022/03/31 14:38:50;;;;;;;4.57;1.90;;;;;;;;;;5113557;28;20055;-32
2022/03/31 14:41:17;;;;;;;4.78;2.03;;;;;;;;;;5113716;28;20049;-32
2022/03/31 14:43:45;;;;;;;4.05;2.00;;;;;;;;;;5113965;28;20062;-33
2022/03/31 14:46:12;;;;;;;3.30;1.80;;;;;;;;;;5113728;28;20121;-32
2022/03/31 14:48:40;;;;;;;4.68;2.00;;;;;;;;;;5113185;28;20047;-33
2022/03/31 14:51:08;;;;;;;4.38;1.90;;;;;;;;;;5113701;28;20051;-33
2022/03/31 14:53:35;;;;;;;3.40;1.85;;;;;;;;;;5113746;28;20051;-32